Time;durP1;ratioP1;P1;durP2;ratioP2;P2;SDS_P1;SDS_P2;PMS_P1;PMS_P2;Temp;Humidity;BMP_temperature;BMP_pressure;BME280_temperature;BME280_humidity;BME280_pressure;Samples;Min_cycle;Max_cycle;Signal;HPM_P1;HPM_P2
2022/04/02 00:01:13;;;;;;;13.65;12.32;;;;;;;;;;5062619;28;20196;-69
2022/04/02 00:03:41;;;;;;;13.63;12.43;;;;;;;;;;5062487;28;20458;-69
2022/04/02 00:06:07;;;;;;;14.30;12.93;;;;;;;;;;5062164;28;20252;-69
2022/04/02 00:08:35;;;;;;;13.18;11.98;;;;;;;;;;5062594;28;20542;-69
2022/04/02 00:11:01;;;;;;;14.13;12.82;;;;;;;;;;5062541;28;20197;-69
2022/04/02 00:13:27;;;;;;;13.60;12.27;;;;;;;;;;5062507;28;20224;-69
2022/04/02 00:15:54;;;;;;;12.73;11.57;;;;;;;;;;5062328;28;20543;-69
2022/04/02 00:18:21;;;;;;;15.70;12.85;;;;;;;;;;5062613;28;20197;-69
2022/04/02 00:20:48;;;;;;;13.23;12.02;;;;;;;;;;5062436;28;20197;-69
2022/04/02 00:25:58;;;;;;;13.32;12.10;;;;;;;;;;5061902;28;20551;-69
2022/04/02 00:28:25;;;;;;;15.05;13.43;;;;;;;;;;5062572;28;20201;-69
2022/04/02 00:30:51;;;;;;;13.23;12.02;;;;;;;;;;5062019;28;20204;-69
2022/04/02 00:33:17;;;;;;;14.52;13.10;;;;;;;;;;5062361;28;20197;-69
2022/04/02 00:35:44;;;;;;;14.57;13.05;;;;;;;;;;5062193;28;20250;-69
2022/04/02 00:38:11;;;;;;;14.25;12.95;;;;;;;;;;5061890;28;20197;-69
2022/04/02 00:40:42;;;;;;;14.93;13.52;;;;;;;;;;5062133;28;20196;-69
2022/04/02 00:43:08;;;;;;;14.07;12.77;;;;;;;;;;5062802;28;20197;-69
2022/04/02 00:45:34;;;;;;;14.40;13.00;;;;;;;;;;5066293;28;20201;-69
2022/04/02 00:48:01;;;;;;;14.45;13.05;;;;;;;;;;5065851;28;20224;-69
2022/04/02 00:50:27;;;;;;;13.90;12.60;;;;;;;;;;5066172;28;20235;-69
2022/04/02 00:52:54;;;;;;;15.95;14.43;;;;;;;;;;5066243;28;20197;-69
2022/04/02 00:55:22;;;;;;;14.32;13.02;;;;;;;;;;5066112;28;20262;-69
2022/04/02 00:57:48;;;;;;;14.63;13.30;;;;;;;;;;5065687;28;20197;-69
2022/04/02 01:00:16;;;;;;;15.82;13.30;;;;;;;;;;5066102;28;20425;-69
2022/04/02 01:02:42;;;;;;;14.15;12.85;;;;;;;;;;5066114;28;20264;-69
2022/04/02 01:05:09;;;;;;;15.00;13.60;;;;;;;;;;5065908;28;20217;-69
2022/04/02 01:07:36;;;;;;;15.07;13.60;;;;;;;;;;5065528;28;20255;-69
2022/04/02 01:10:03;;;;;;;14.65;13.25;;;;;;;;;;5066196;28;20251;-69
2022/04/02 01:12:31;;;;;;;14.95;13.55;;;;;;;;;;5066196;28;20272;-69
2022/04/02 01:14:57;;;;;;;13.80;12.57;;;;;;;;;;5065917;28;20197;-69
2022/04/02 01:17:23;;;;;;;16.15;14.52;;;;;;;;;;5065611;28;20255;-69
2022/04/02 01:19:50;;;;;;;15.02;13.55;;;;;;;;;;5065704;28;20200;-69
2022/04/02 01:22:18;;;;;;;15.25;13.65;;;;;;;;;;5065538;28;20200;-69
2022/04/02 01:24:44;;;;;;;15.02;13.48;;;;;;;;;;5065260;28;20193;-69
2022/04/02 01:27:10;;;;;;;15.43;13.90;;;;;;;;;;5065319;28;20221;-69
2022/04/02 01:29:37;;;;;;;15.50;13.90;;;;;;;;;;5065356;28;20327;-69
2022/04/02 01:32:03;;;;;;;15.30;13.80;;;;;;;;;;5065566;28;20440;-69
2022/04/02 01:34:31;;;;;;;15.05;13.55;;;;;;;;;;5065366;28;20235;-69
2022/04/02 01:36:57;;;;;;;14.07;12.70;;;;;;;;;;5064959;28;20194;-69
2022/04/02 01:39:25;;;;;;;14.40;12.95;;;;;;;;;;5065256;28;20516;-69
2022/04/02 01:41:51;;;;;;;15.55;13.82;;;;;;;;;;5065370;28;20496;-69
2022/04/02 01:44:17;;;;;;;16.50;13.70;;;;;;;;;;5065302;28;20197;-69
2022/04/02 01:46:44;;;;;;;14.20;12.90;;;;;;;;;;5064905;28;20213;-69
2022/04/02 01:49:10;;;;;;;15.40;13.80;;;;;;;;;;5064684;28;20197;-69
2022/04/02 01:51:37;;;;;;;15.70;14.20;;;;;;;;;;5065201;28;20259;-69
2022/04/02 01:54:03;;;;;;;17.55;14.30;;;;;;;;;;5065140;28;20287;-69
2022/04/02 01:56:31;;;;;;;17.75;13.65;;;;;;;;;;5063911;28;20213;-69
2022/04/02 01:58:57;;;;;;;16.10;14.52;;;;;;;;;;5065304;28;20410;-69
2022/04/02 02:01:23;;;;;;;15.50;13.30;;;;;;;;;;5064942;28;20504;-69
2022/04/02 02:03:50;;;;;;;16.00;13.70;;;;;;;;;;5064808;28;20272;-69
2022/04/02 02:06:16;;;;;;;15.18;13.68;;;;;;;;;;5064594;28;20229;-69
2022/04/02 02:08:42;;;;;;;15.10;13.35;;;;;;;;;;5064942;28;20201;-69
2022/04/02 02:11:08;;;;;;;14.13;12.75;;;;;;;;;;5064789;28;20205;-69
2022/04/02 02:13:36;;;;;;;15.48;13.32;;;;;;;;;;5064671;28;20204;-69
2022/04/02 02:16:02;;;;;;;16.30;13.20;;;;;;;;;;5064451;28;20200;-69
2022/04/02 02:18:28;;;;;;;14.23;12.88;;;;;;;;;;5064367;28;20497;-69
2022/04/02 02:20:55;;;;;;;15.02;13.40;;;;;;;;;;5064947;28;20251;-69
2022/04/02 02:23:21;;;;;;;16.25;13.13;;;;;;;;;;5064570;28;20212;-69
2022/04/02 02:25:47;;;;;;;13.82;12.40;;;;;;;;;;5064384;28;20437;-69
2022/04/02 02:28:15;;;;;;;13.48;12.18;;;;;;;;;;5064066;28;20606;-69
2022/04/02 02:30:42;;;;;;;13.98;12.55;;;;;;;;;;5064331;28;20197;-69
2022/04/02 02:35:52;;;;;;;14.38;11.23;;;;;;;;;;5064526;28;20231;-69
2022/04/02 02:38:20;;;;;;;13.02;11.82;;;;;;;;;;5064263;28;20193;-69
2022/04/02 02:40:47;;;;;;;12.50;11.30;;;;;;;;;;5064043;28;20197;-69
2022/04/02 02:43:13;;;;;;;13.40;11.65;;;;;;;;;;5063977;28;20244;-69
2022/04/02 02:45:40;;;;;;;12.68;11.05;;;;;;;;;;5064243;28;20436;-69
2022/04/02 02:48:09;;;;;;;12.27;11.07;;;;;;;;;;5063873;28;20217;-69
2022/04/02 02:50:36;;;;;;;13.13;11.32;;;;;;;;;;5064153;28;20209;-69
2022/04/02 02:53:02;;;;;;;12.27;11.07;;;;;;;;;;5063919;28;20204;-69
2022/04/02 02:55:29;;;;;;;11.88;10.77;;;;;;;;;;5063896;28;20304;-69
2022/04/02 02:57:55;;;;;;;11.48;10.48;;;;;;;;;;5063490;28;20200;-69
2022/04/02 03:00:22;;;;;;;12.10;10.90;;;;;;;;;;5063940;28;20201;-69
2022/04/02 03:02:48;;;;;;;11.80;10.60;;;;;;;;;;5063858;28;20197;-69
2022/04/02 03:05:16;;;;;;;13.00;11.02;;;;;;;;;;5063663;28;20255;-69
2022/04/02 03:07:48;;;;;;;14.90;10.57;;;;;;;;;;5063191;28;20213;-69
2022/04/02 03:10:15;;;;;;;12.48;10.52;;;;;;;;;;5063653;28;20204;-69
2022/04/02 03:12:41;;;;;;;12.55;10.13;;;;;;;;;;5063442;28;20197;-69
2022/04/02 03:15:08;;;;;;;12.82;10.85;;;;;;;;;;5063633;28;20262;-69
2022/04/02 03:17:34;;;;;;;11.43;10.20;;;;;;;;;;5063335;28;20193;-69
2022/04/02 03:20:01;;;;;;;10.73;9.73;;;;;;;;;;5063392;28;20197;-69
2022/04/02 03:22:28;;;;;;;11.63;10.43;;;;;;;;;;5063388;28;20271;-69
2022/04/02 03:24:54;;;;;;;16.02;10.15;;;;;;;;;;5063121;28;20211;-69
2022/04/02 03:27:21;;;;;;;11.60;10.50;;;;;;;;;;5063042;28;20224;-69
2022/04/02 03:29:47;;;;;;;11.07;9.98;;;;;;;;;;5063412;28;20220;-69
2022/04/02 03:32:14;;;;;;;14.77;11.10;;;;;;;;;;5063100;28;20197;-69
2022/04/02 03:34:40;;;;;;;12.95;10.23;;;;;;;;;;5063214;28;20201;-69
2022/04/02 03:37:07;;;;;;;15.00;10.20;;;;;;;;;;5062905;28;20382;-69
2022/04/02 03:39:34;;;;;;;15.02;9.48;;;;;;;;;;5062956;28;20209;-69
2022/04/02 03:42:01;;;;;;;13.18;10.38;;;;;;;;;;5063121;28;20259;-69
2022/04/02 03:44:27;;;;;;;13.50;10.15;;;;;;;;;;5062893;28;20189;-69
2022/04/02 03:47:08;;;;;;;10.25;9.23;;;;;;;;;;5062704;28;20412;-69
2022/04/02 03:49:35;;;;;;;14.23;10.07;;;;;;;;;;5062960;28;20250;-69
2022/04/02 03:52:01;;;;;;;11.77;9.63;;;;;;;;;;5062765;28;20197;-69
2022/04/02 03:54:28;;;;;;;11.43;9.38;;;;;;;;;;5062726;28;20223;-69
2022/04/02 03:56:55;;;;;;;12.15;9.25;;;;;;;;;;5062609;28;20201;-69
2022/04/02 03:59:22;;;;;;;11.40;9.68;;;;;;;;;;5062743;28;20528;-69
2022/04/02 04:01:48;;;;;;;11.73;8.73;;;;;;;;;;5062831;28;20512;-69
2022/04/02 04:04:14;;;;;;;14.55;9.57;;;;;;;;;;5062625;28;20499;-69
2022/04/02 04:06:41;;;;;;;10.27;8.77;;;;;;;;;;5062069;28;20571;-69
2022/04/02 04:09:08;;;;;;;11.98;8.88;;;;;;;;;;5062668;28;20268;-69
2022/04/02 04:11:34;;;;;;;12.57;9.10;;;;;;;;;;5062646;28;20197;-69
2022/04/02 04:14:02;;;;;;;10.43;9.43;;;;;;;;;;5062403;28;20204;-69
2022/04/02 04:16:28;;;;;;;11.88;8.82;;;;;;;;;;5062442;28;20197;-69
2022/04/02 04:18:54;;;;;;;9.65;8.35;;;;;;;;;;5061957;28;20193;-69
2022/04/02 04:21:21;;;;;;;10.02;8.68;;;;;;;;;;5062203;28;20201;-69
2022/04/02 04:23:47;;;;;;;13.95;8.55;;;;;;;;;;5062588;28;20375;-69
2022/04/02 04:26:13;;;;;;;12.65;8.85;;;;;;;;;;5061864;28;20440;-69
2022/04/02 04:28:39;;;;;;;19.10;8.65;;;;;;;;;;5062254;28;20228;-69
2022/04/02 04:31:08;;;;;;;10.07;8.23;;;;;;;;;;5062249;28;20235;-69
2022/04/02 04:33:35;;;;;;;13.82;8.05;;;;;;;;;;5062629;28;20203;-69
2022/04/02 04:36:01;;;;;;;11.93;8.30;;;;;;;;;;5061852;28;20196;-69
2022/04/02 04:38:27;;;;;;;8.95;8.02;;;;;;;;;;5062303;28;20231;-69
2022/04/02 04:40:54;;;;;;;12.15;8.25;;;;;;;;;;5062222;28;20197;-69
2022/04/02 04:43:20;;;;;;;10.93;9.02;;;;;;;;;;5061102;28;20444;-70
2022/04/02 04:45:46;;;;;;;10.30;8.25;;;;;;;;;;5062166;28;20197;-70
2022/04/02 04:48:14;;;;;;;13.50;8.15;;;;;;;;;;5061685;28;20228;-70
2022/04/02 04:50:40;;;;;;;11.88;8.25;;;;;;;;;;5062307;28;20243;-70
2022/04/02 04:53:06;;;;;;;11.25;8.23;;;;;;;;;;5062223;28;20197;-70
2022/04/02 04:55:33;;;;;;;10.60;7.85;;;;;;;;;;5062150;28;20197;-70
2022/04/02 04:57:59;;;;;;;9.15;7.78;;;;;;;;;;5061732;28;20200;-70
2022/04/02 05:00:25;;;;;;;8.18;7.43;;;;;;;;;;5061940;28;20243;-70
2022/04/02 05:02:51;;;;;;;8.05;7.10;;;;;;;;;;5062378;28;20234;-69
2022/04/02 05:05:19;;;;;;;13.10;7.82;;;;;;;;;;5061849;28;20220;-70
2022/04/02 05:07:46;;;;;;;8.43;7.60;;;;;;;;;;5061622;28;20221;-69
2022/04/02 05:10:12;;;;;;;8.80;7.50;;;;;;;;;;5062093;28;20200;-70
2022/04/02 05:12:39;;;;;;;9.05;8.15;;;;;;;;;;5061895;28;20201;-70
2022/04/02 05:15:07;;;;;;;9.85;8.13;;;;;;;;;;5061835;28;20520;-69
2022/04/02 05:17:34;;;;;;;12.27;9.40;;;;;;;;;;5061534;28;20193;-70
2022/04/02 05:20:00;;;;;;;11.65;9.77;;;;;;;;;;5062021;28;20198;-70
2022/04/02 05:22:28;;;;;;;8.63;7.70;;;;;;;;;;5061883;28;20268;-70
2022/04/02 05:24:54;;;;;;;8.40;7.32;;;;;;;;;;5061720;28;20205;-70
2022/04/02 05:27:20;;;;;;;10.65;7.50;;;;;;;;;;5061645;28;20201;-70
2022/04/02 05:29:47;;;;;;;13.57;8.13;;;;;;;;;;5063553;28;20197;-69
2022/04/02 05:32:13;;;;;;;8.68;7.20;;;;;;;;;;5065384;28;20204;-70
2022/04/02 05:34:39;;;;;;;10.48;8.10;;;;;;;;;;5065678;28;20550;-70
2022/04/02 05:37:06;;;;;;;8.35;7.38;;;;;;;;;;5065342;28;20212;-70
2022/04/02 05:39:33;;;;;;;8.30;7.55;;;;;;;;;;5065454;28;20418;-70
2022/04/02 05:42:00;;;;;;;8.35;7.63;;;;;;;;;;5065312;28;20500;-68
2022/04/02 05:44:26;;;;;;;8.70;7.18;;;;;;;;;;5065194;28;20272;-67
2022/04/02 05:46:52;;;;;;;7.63;7.03;;;;;;;;;;5064886;28;20423;-68
2022/04/02 05:49:19;;;;;;;8.55;7.75;;;;;;;;;;5065106;28;20229;-70
2022/04/02 05:51:45;;;;;;;8.40;7.55;;;;;;;;;;5065203;28;20197;-70
2022/04/02 05:54:11;;;;;;;8.38;7.10;;;;;;;;;;5065109;28;20197;-69
2022/04/02 05:56:39;;;;;;;8.15;7.55;;;;;;;;;;5064694;28;20204;-68
2022/04/02 05:59:05;;;;;;;7.47;6.85;;;;;;;;;;5064925;28;20201;-70
2022/04/02 06:01:32;;;;;;;8.32;7.63;;;;;;;;;;5065066;28;20523;-68
2022/04/02 06:03:59;;;;;;;8.02;7.40;;;;;;;;;;5065092;28;20197;-70
2022/04/02 06:06:25;;;;;;;8.30;7.70;;;;;;;;;;5064570;28;20217;-69
2022/04/02 06:08:52;;;;;;;7.93;7.32;;;;;;;;;;5064848;28;20558;-69
2022/04/02 06:11:18;;;;;;;9.00;8.20;;;;;;;;;;5064848;28;20319;-69
2022/04/02 06:13:45;;;;;;;8.77;8.10;;;;;;;;;;5064658;28;20243;-69
2022/04/02 06:16:12;;;;;;;9.20;8.35;;;;;;;;;;5064676;28;20519;-69
2022/04/02 06:18:38;;;;;;;8.65;7.80;;;;;;;;;;5064759;28;20200;-69
2022/04/02 06:21:04;;;;;;;8.65;7.85;;;;;;;;;;5064653;28;20227;-69
2022/04/02 06:23:31;;;;;;;7.90;7.18;;;;;;;;;;5064611;28;20201;-69
2022/04/02 06:25:57;;;;;;;7.93;6.95;;;;;;;;;;5064154;28;20280;-69
2022/04/02 06:28:23;;;;;;;8.13;7.43;;;;;;;;;;5064569;28;20221;-69
2022/04/02 06:30:51;;;;;;;7.90;7.10;;;;;;;;;;5064557;28;20201;-69
2022/04/02 06:33:17;;;;;;;7.38;6.70;;;;;;;;;;5064351;28;20235;-69
2022/04/02 06:35:43;;;;;;;7.78;7.00;;;;;;;;;;5064357;28;20511;-69
2022/04/02 06:38:10;;;;;;;7.28;6.68;;;;;;;;;;5063986;28;20199;-69
2022/04/02 06:40:36;;;;;;;7.40;6.90;;;;;;;;;;5063757;28;20251;-69
2022/04/02 06:43:02;;;;;;;7.63;7.03;;;;;;;;;;5064022;28;20473;-69
2022/04/02 06:45:28;;;;;;;7.00;6.50;;;;;;;;;;5064247;28;20201;-69
2022/04/02 06:47:56;;;;;;;7.15;6.55;;;;;;;;;;5063930;28;20221;-69
2022/04/02 06:50:22;;;;;;;7.60;7.00;;;;;;;;;;5064084;28;20197;-69
2022/04/02 06:52:49;;;;;;;6.72;6.22;;;;;;;;;;5064253;28;20222;-69
2022/04/02 06:55:16;;;;;;;7.43;6.80;;;;;;;;;;5063811;28;20438;-69
2022/04/02 06:57:42;;;;;;;7.65;7.00;;;;;;;;;;5063978;28;20517;-69
2022/04/02 07:00:09;;;;;;;6.70;6.20;;;;;;;;;;5063969;28;20515;-69
2022/04/02 07:02:35;;;;;;;7.03;6.53;;;;;;;;;;5063918;28;20412;-69
2022/04/02 07:05:03;;;;;;;8.00;7.30;;;;;;;;;;5063697;28;20589;-69
2022/04/02 07:07:29;;;;;;;6.88;6.28;;;;;;;;;;5063347;28;20232;-69
2022/04/02 07:09:55;;;;;;;7.28;6.63;;;;;;;;;;5063531;28;20224;-69
2022/04/02 07:12:22;;;;;;;7.22;6.55;;;;;;;;;;5063495;28;20208;-69
2022/04/02 07:14:48;;;;;;;7.38;6.65;;;;;;;;;;5063732;28;20197;-69
2022/04/02 07:17:14;;;;;;;7.07;6.50;;;;;;;;;;5063695;28;20197;-69
2022/04/02 07:19:41;;;;;;;7.00;6.40;;;;;;;;;;5063422;28;20204;-69
2022/04/02 07:22:09;;;;;;;7.28;6.57;;;;;;;;;;5063364;28;20235;-69
2022/04/02 07:24:37;;;;;;;7.07;6.28;;;;;;;;;;5063031;28;20204;-69
2022/04/02 07:27:04;;;;;;;6.18;5.80;;;;;;;;;;5063479;28;20243;-69
2022/04/02 07:29:32;;;;;;;7.00;6.30;;;;;;;;;;5063262;28;20532;-70
2022/04/02 07:31:58;;;;;;;6.55;6.15;;;;;;;;;;5063191;28;20294;-69
2022/04/02 07:34:25;;;;;;;8.25;6.65;;;;;;;;;;5063426;28;20204;-69
2022/04/02 07:36:58;;;;;;;6.97;6.38;;;;;;;;;;5062806;28;20618;-69
2022/04/02 07:39:31;;;;;;;7.00;6.50;;;;;;;;;;5063230;28;20520;-69
2022/04/02 07:42:01;;;;;;;8.48;7.45;;;;;;;;;;5059125;28;20258;-69
2022/04/02 07:44:31;;;;;;;7.65;6.85;;;;;;;;;;5053584;28;20227;-68
2022/04/02 07:46:58;;;;;;;9.48;7.07;;;;;;;;;;5056280;28;20206;-68
2022/04/02 07:49:24;;;;;;;7.10;6.50;;;;;;;;;;5062547;28;20220;-69
2022/04/02 07:51:53;;;;;;;7.15;6.47;;;;;;;;;;5071620;28;20197;-69
2022/04/02 07:54:21;;;;;;;8.05;7.25;;;;;;;;;;5039311;28;20227;-69
2022/04/02 07:56:50;;;;;;;7.18;6.45;;;;;;;;;;5039497;28;20260;-69
2022/04/02 07:59:23;;;;;;;7.78;7.07;;;;;;;;;;5057842;28;20416;-68
2022/04/02 08:01:50;;;;;;;11.95;7.28;;;;;;;;;;5059158;28;20244;-69
2022/04/02 08:04:17;;;;;;;8.07;7.05;;;;;;;;;;5059377;28;20393;-68
2022/04/02 08:06:44;;;;;;;7.13;6.63;;;;;;;;;;5058484;28;20294;-68
2022/04/02 08:09:11;;;;;;;7.82;6.60;;;;;;;;;;5059224;28;20252;-68
2022/04/02 08:11:38;;;;;;;8.82;6.65;;;;;;;;;;5059483;28;20503;-69
2022/04/02 08:14:06;;;;;;;7.10;6.60;;;;;;;;;;5059293;28;20196;-69
2022/04/02 08:16:33;;;;;;;7.60;6.97;;;;;;;;;;5058830;28;20251;-69
2022/04/02 08:19:02;;;;;;;7.38;6.78;;;;;;;;;;5059022;28;20611;-69
2022/04/02 08:21:29;;;;;;;7.05;6.45;;;;;;;;;;5059016;28;20242;-69
2022/04/02 08:23:56;;;;;;;6.38;5.88;;;;;;;;;;5059169;28;20251;-69
2022/04/02 08:26:31;;;;;;;9.55;6.93;;;;;;;;;;5058654;28;20216;-68
2022/04/02 08:29:07;;;;;;;7.60;6.90;;;;;;;;;;5059019;28;20431;-69
2022/04/02 08:31:42;;;;;;;7.50;6.55;;;;;;;;;;5059184;28;20412;-69
2022/04/02 08:34:13;;;;;;;8.05;7.30;;;;;;;;;;5059068;28;20243;-68
2022/04/02 08:36:42;;;;;;;6.60;6.10;;;;;;;;;;5058628;28;20247;-68
2022/04/02 08:39:09;;;;;;;7.82;7.22;;;;;;;;;;5058642;28;20197;-69
2022/04/02 08:42:00;;;;;;;9.02;7.88;;;;;;;;;;5058748;28;20621;-68
2022/04/02 08:44:41;;;;;;;7.28;6.68;;;;;;;;;;5020197;28;20238;-68
2022/04/02 08:47:12;;;;;;;8.40;6.93;;;;;;;;;;5058592;28;20417;-68
2022/04/02 08:49:42;;;;;;;6.35;5.78;;;;;;;;;;5058714;28;20221;-69
2022/04/02 08:52:20;;;;;;;9.80;7.07;;;;;;;;;;5058942;28;20541;-68
2022/04/02 08:54:48;;;;;;;7.80;7.00;;;;;;;;;;5058822;28;20402;-69
2022/04/02 08:57:21;;;;;;;7.57;6.70;;;;;;;;;;5058690;28;20204;-69
2022/04/02 08:59:57;;;;;;;10.93;6.47;;;;;;;;;;5058964;28;20586;-69
2022/04/02 09:02:37;;;;;;;6.45;6.00;;;;;;;;;;5058934;28;20205;-68
2022/04/02 09:05:21;;;;;;;6.88;6.35;;;;;;;;;;5061486;28;20613;-68
2022/04/02 09:08:05;;;;;;;6.40;5.90;;;;;;;;;;5062656;28;20264;-68
2022/04/02 09:10:49;;;;;;;7.55;6.55;;;;;;;;;;5062818;28;20228;-69
2022/04/02 09:13:39;;;;;;;7.47;6.72;;;;;;;;;;5062505;28;20212;-69
2022/04/02 09:16:06;;;;;;;6.75;6.15;;;;;;;;;;5051739;28;20212;-69
2022/04/02 09:18:38;;;;;;;6.40;5.80;;;;;;;;;;5063070;28;20580;-68
2022/04/02 09:21:17;;;;;;;7.25;5.65;;;;;;;;;;5062445;28;20205;-68
2022/04/02 09:23:44;;;;;;;6.75;6.13;;;;;;;;;;5063219;28;20209;-69
2022/04/02 09:26:21;;;;;;;8.00;6.05;;;;;;;;;;5062343;28;20244;-68
2022/04/02 09:28:59;;;;;;;7.70;7.00;;;;;;;;;;5062732;28;20620;-68
2022/04/02 09:31:35;;;;;;;7.22;6.30;;;;;;;;;;5062611;28;20469;-68
2022/04/02 09:34:15;;;;;;;6.15;5.63;;;;;;;;;;5062631;28;20212;-69
2022/04/02 09:36:47;;;;;;;6.82;6.32;;;;;;;;;;5062330;28;20205;-68
2022/04/02 09:39:22;;;;;;;6.93;6.40;;;;;;;;;;5062018;28;20232;-68
2022/04/02 09:42:03;;;;;;;6.80;6.22;;;;;;;;;;5062087;28;20242;-69
2022/04/02 09:44:40;;;;;;;7.55;6.38;;;;;;;;;;5062355;28;20237;-68
2022/04/02 09:47:15;;;;;;;7.78;6.80;;;;;;;;;;5061986;28;20208;-68
2022/04/02 09:49:53;;;;;;;8.00;7.18;;;;;;;;;;5062109;28;20270;-68
2022/04/02 09:52:22;;;;;;;8.52;7.82;;;;;;;;;;5062422;28;20227;-68
2022/04/02 09:54:52;;;;;;;8.82;7.93;;;;;;;;;;5062279;28;20212;-68
2022/04/02 09:57:25;;;;;;;10.23;8.07;;;;;;;;;;5061896;28;20209;-68
2022/04/02 09:59:58;;;;;;;8.70;8.00;;;;;;;;;;5062529;28;20201;-68
2022/04/02 10:02:34;;;;;;;9.75;8.85;;;;;;;;;;5061998;28;20205;-68
2022/04/02 10:05:04;;;;;;;10.30;9.23;;;;;;;;;;5061291;28;20294;-68
2022/04/02 10:07:33;;;;;;;8.55;7.85;;;;;;;;;;5061801;28;20251;-68
2022/04/02 10:10:01;;;;;;;9.05;8.10;;;;;;;;;;5061580;28;20233;-68
2022/04/02 10:12:28;;;;;;;10.30;7.93;;;;;;;;;;5061879;28;20205;-68
2022/04/02 10:14:56;;;;;;;9.15;8.05;;;;;;;;;;5061977;28;20280;-68
2022/04/02 10:17:25;;;;;;;9.25;8.45;;;;;;;;;;5060279;28;20205;-68
2022/04/02 10:19:53;;;;;;;9.85;8.68;;;;;;;;;;5061973;28;20201;-68
2022/04/02 10:22:23;;;;;;;12.75;8.95;;;;;;;;;;5061393;28;20209;-68
2022/04/02 10:24:50;;;;;;;11.23;10.13;;;;;;;;;;5061182;28;20213;-68
2022/04/02 10:27:24;;;;;;;15.07;11.48;;;;;;;;;;5061257;28;20563;-68
2022/04/02 10:30:02;;;;;;;10.70;9.65;;;;;;;;;;5061244;28;20229;-68
2022/04/02 10:32:33;;;;;;;11.48;10.38;;;;;;;;;;5061268;28;20213;-68
2022/04/02 10:35:04;;;;;;;10.77;9.77;;;;;;;;;;5060998;28;20205;-68
2022/04/02 10:37:38;;;;;;;10.35;9.40;;;;;;;;;;5060969;28;20213;-68
2022/04/02 10:40:06;;;;;;;10.02;9.23;;;;;;;;;;5061032;28;20201;-68
2022/04/02 10:42:33;;;;;;;9.88;8.60;;;;;;;;;;5060810;28;20251;-61
2022/04/02 10:45:00;;;;;;;9.73;8.73;;;;;;;;;;5061069;28;20205;-61
2022/04/02 10:47:27;;;;;;;9.63;8.68;;;;;;;;;;5060262;28;20458;-62
2022/04/02 10:49:58;;;;;;;9.80;8.98;;;;;;;;;;5060536;28;20303;-62
2022/04/02 10:52:26;;;;;;;9.82;8.93;;;;;;;;;;5061046;28;20205;-62
2022/04/02 10:54:54;;;;;;;10.25;9.35;;;;;;;;;;5060559;28;20247;-62
2022/04/02 10:57:20;;;;;;;12.85;9.07;;;;;;;;;;5059305;28;20251;-62
2022/04/02 10:59:47;;;;;;;11.68;8.60;;;;;;;;;;5057696;28;20472;-64
2022/04/02 11:02:20;;;;;;;9.23;8.43;;;;;;;;;;5057316;28;20205;-60
2022/04/02 11:04:57;;;;;;;9.82;8.88;;;;;;;;;;5056985;28;20508;-60
2022/04/02 11:07:26;;;;;;;11.73;9.25;;;;;;;;;;5056975;28;20209;-60
2022/04/02 11:09:54;;;;;;;10.00;9.10;;;;;;;;;;5056914;28;20471;-61
2022/04/02 11:12:27;;;;;;;9.25;8.38;;;;;;;;;;5056990;28;20209;-61
2022/04/02 11:14:54;;;;;;;9.57;8.68;;;;;;;;;;5056987;28;20213;-61
2022/04/02 11:17:28;;;;;;;9.35;8.45;;;;;;;;;;5056881;28;20209;-60
2022/04/02 11:20:01;;;;;;;10.20;9.23;;;;;;;;;;5056929;28;20341;-60
2022/04/02 11:22:29;;;;;;;9.68;8.77;;;;;;;;;;5056797;28;20462;-60
2022/04/02 11:25:04;;;;;;;10.20;9.25;;;;;;;;;;5057018;28;20282;-60
2022/04/02 11:27:31;;;;;;;10.90;8.98;;;;;;;;;;5057055;28;20287;-60
2022/04/02 11:30:01;;;;;;;10.10;8.82;;;;;;;;;;5057108;28;20481;-60
2022/04/02 11:32:29;;;;;;;10.65;9.65;;;;;;;;;;5056626;28;20559;-60
2022/04/02 11:34:56;;;;;;;10.65;9.65;;;;;;;;;;5056624;28;20574;-62
2022/04/02 11:37:32;;;;;;;10.52;9.43;;;;;;;;;;5056443;28;20208;-61
2022/04/02 11:40:02;;;;;;;11.48;9.73;;;;;;;;;;5036934;28;20229;-60
2022/04/02 11:42:32;;;;;;;11.23;10.23;;;;;;;;;;5036765;28;20233;-61
2022/04/02 11:45:03;;;;;;;10.57;9.57;;;;;;;;;;5036824;28;20228;-61
2022/04/02 11:47:29;;;;;;;10.88;9.68;;;;;;;;;;5036654;28;20216;-61
2022/04/02 11:50:04;;;;;;;11.40;10.30;;;;;;;;;;5036700;28;20282;-60
2022/04/02 11:52:48;;;;;;;11.80;10.68;;;;;;;;;;5036706;28;20255;-60
2022/04/02 11:55:15;;;;;;;11.40;10.30;;;;;;;;;;5036411;28;20426;-60
2022/04/02 11:57:57;;;;;;;11.68;10.63;;;;;;;;;;5036234;28;20591;-61
2022/04/02 12:00:25;;;;;;;14.18;11.50;;;;;;;;;;5036948;28;20536;-61
2022/04/02 12:02:52;;;;;;;11.98;10.48;;;;;;;;;;5036204;28;20205;-61
2022/04/02 12:05:20;;;;;;;11.38;10.35;;;;;;;;;;5036373;28;20218;-60
2022/04/02 12:07:47;;;;;;;12.75;10.50;;;;;;;;;;5036233;28;20405;-61
2022/04/02 12:10:14;;;;;;;11.73;10.52;;;;;;;;;;5036161;28;20502;-61
2022/04/02 12:12:42;;;;;;;11.95;10.80;;;;;;;;;;5036024;28;20209;-61
2022/04/02 12:15:11;;;;;;;11.82;9.80;;;;;;;;;;5036110;28;20214;-61
2022/04/02 12:17:37;;;;;;;11.95;10.68;;;;;;;;;;5036113;28;20209;-61
2022/04/02 12:20:07;;;;;;;11.77;10.60;;;;;;;;;;5036064;28;20205;-60
2022/04/02 12:22:35;;;;;;;11.32;10.23;;;;;;;;;;5035516;28;20247;-61
2022/04/02 12:25:03;;;;;;;12.13;10.85;;;;;;;;;;5035662;28;20217;-61
2022/04/02 12:27:30;;;;;;;11.52;10.43;;;;;;;;;;5040325;28;20214;-61
2022/04/02 12:29:57;;;;;;;11.20;10.13;;;;;;;;;;5067621;28;20235;-59
2022/04/02 12:32:30;;;;;;;10.93;9.80;;;;;;;;;;5075815;28;20266;-60
2022/04/02 12:34:57;;;;;;;12.02;10.90;;;;;;;;;;5075685;28;20209;-60
2022/04/02 12:37:24;;;;;;;13.60;10.55;;;;;;;;;;5075645;28;20564;-61
2022/04/02 12:39:52;;;;;;;11.38;10.27;;;;;;;;;;5055745;28;20204;-61
2022/04/02 12:42:33;;;;;;;11.75;10.68;;;;;;;;;;5055937;28;20255;-61
2022/04/02 12:45:05;;;;;;;12.02;10.93;;;;;;;;;;5055610;28;20565;-61
2022/04/02 12:47:34;;;;;;;11.43;10.43;;;;;;;;;;5055515;28;20212;-61
2022/04/02 12:50:09;;;;;;;12.38;11.27;;;;;;;;;;5055722;28;20733;-61
2022/04/02 12:52:43;;;;;;;11.68;10.48;;;;;;;;;;5055786;28;20250;-61
2022/04/02 12:55:16;;;;;;;11.52;10.43;;;;;;;;;;5055866;28;20213;-61
2022/04/02 12:57:45;;;;;;;13.77;11.40;;;;;;;;;;5055932;28;20293;-61
2022/04/02 13:00:24;;;;;;;12.07;10.43;;;;;;;;;;5055976;28;20531;-61
2022/04/02 13:02:55;;;;;;;12.70;11.40;;;;;;;;;;5055541;28;20209;-61
2022/04/02 13:05:21;;;;;;;12.93;11.63;;;;;;;;;;5055521;28;20283;-61
2022/04/02 13:07:58;;;;;;;13.40;12.20;;;;;;;;;;5055540;28;20220;-61
2022/04/02 13:10:26;;;;;;;13.77;12.48;;;;;;;;;;5055277;28;20236;-61
2022/04/02 13:12:53;;;;;;;13.65;12.35;;;;;;;;;;5055277;28;20300;-61
2022/04/02 13:15:21;;;;;;;14.10;12.77;;;;;;;;;;5055423;28;20247;-61
2022/04/02 13:20:28;;;;;;;14.77;13.23;;;;;;;;;;5055285;28;20213;-61
2022/04/02 13:20:36;;;;;;;13.52;12.23;;;;;;;;;;5055153;28;20281;-61
2022/04/02 13:23:03;;;;;;;13.27;11.50;;;;;;;;;;5054966;28;20213;-57
2022/04/02 13:25:31;;;;;;;13.32;12.02;;;;;;;;;;5055045;28;20455;-60
2022/04/02 13:28:09;;;;;;;14.13;12.75;;;;;;;;;;5055085;28;20534;-60
2022/04/02 13:30:36;;;;;;;13.68;12.32;;;;;;;;;;5055836;28;20224;-59
2022/04/02 13:33:24;;;;;;;13.77;12.38;;;;;;;;;;5055376;28;20465;-59
2022/04/02 13:35:54;;;;;;;12.93;11.63;;;;;;;;;;5055291;28;20216;-60
2022/04/02 13:38:31;;;;;;;12.80;11.48;;;;;;;;;;5055161;28;20209;-60
2022/04/02 13:40:59;;;;;;;13.65;12.10;;;;;;;;;;5055555;28;20397;-60
2022/04/02 13:43:28;;;;;;;13.77;12.48;;;;;;;;;;5054748;28;20209;-61
2022/04/02 13:45:56;;;;;;;13.18;11.77;;;;;;;;;;5055029;28;20548;-61
2022/04/02 13:48:23;;;;;;;12.80;11.60;;;;;;;;;;5055202;28;20232;-60
2022/04/02 13:50:55;;;;;;;12.70;11.50;;;;;;;;;;5055141;28;20473;-60
2022/04/02 13:53:27;;;;;;;12.95;11.63;;;;;;;;;;5058169;28;20521;-60
2022/04/02 13:55:54;;;;;;;14.55;13.20;;;;;;;;;;5058404;28;20213;-60
2022/04/02 13:58:28;;;;;;;14.25;12.85;;;;;;;;;;5057979;28;20666;-60
2022/04/02 14:00:57;;;;;;;13.23;12.02;;;;;;;;;;5058303;28;20205;-60
2022/04/02 14:03:24;;;;;;;12.95;11.85;;;;;;;;;;5057854;28;20479;-60
2022/04/02 14:05:56;;;;;;;14.43;13.02;;;;;;;;;;5058135;28;20225;-61
2022/04/02 14:08:24;;;;;;;12.10;11.00;;;;;;;;;;5058133;28;20695;-60
2022/04/02 14:10:51;;;;;;;12.95;11.75;;;;;;;;;;5057947;28;20245;-60
2022/04/02 14:13:18;;;;;;;13.82;12.23;;;;;;;;;;5057697;28;20551;-60
2022/04/02 14:15:52;;;;;;;13.00;11.70;;;;;;;;;;5057313;28;20209;-63
2022/04/02 14:18:23;;;;;;;12.43;11.32;;;;;;;;;;5060985;28;20205;-60
2022/04/02 14:20:53;;;;;;;13.02;11.73;;;;;;;;;;5061058;28;20211;-60
2022/04/02 14:23:20;;;;;;;13.32;11.88;;;;;;;;;;5060855;28;20205;-60
2022/04/02 14:26:05;;;;;;;14.43;13.00;;;;;;;;;;5060958;28;20240;-61
2022/04/02 14:28:36;;;;;;;14.18;12.77;;;;;;;;;;5054325;28;20201;-61
2022/04/02 14:31:18;;;;;;;17.60;12.50;;;;;;;;;;5060884;28;20471;-60
2022/04/02 14:33:57;;;;;;;13.52;12.23;;;;;;;;;;5060737;28;20205;-61
2022/04/02 14:36:55;;;;;;;13.90;11.95;;;;;;;;;;5060954;28;20251;-61
2022/04/02 14:39:29;;;;;;;14.15;12.75;;;;;;;;;;5060818;28;20213;-60
2022/04/02 14:42:00;;;;;;;14.32;12.40;;;;;;;;;;5060522;28;20201;-61
2022/04/02 14:45:00;;;;;;;13.75;12.45;;;;;;;;;;5060342;28;20276;-61